Share

Simpson, KS (67478)

Simpson KS (KKSBELOI5) Elev 1342 ft | 39.39 °N, 97.94 °W | Change Station

Current weather conditions updated 7 minutes ago

Clear
Clear
62.8 °F
Feels Like 62.8 °F
N
11.4
Wind Variable Wind from South
Sunrise 6:48 AM
Sunset 8:13 PM
Moon Waning Gibbous

Today is forecast to be Much Warmer than yesterday.

Pressure 30.01 in
Visibility 10.0 miles
Clouds Clear
Dew Point 57 °F
Humidity 82%
Rainfall 0.00 in
Snow Depth Not available.
UV 2 out of 16
Pollen 11.50 out of 12
Air Quality Not available.
Flu Activity No Activity
METAR KCNK 191355Z AUTO 18018G29KT 10SM CLR 14/08 A3002 RMK AO2 PK WND 18029/1353 SLP160 T01440078 $

More Conditions Fewer Conditions

Pressure 30.01 in
Visibility 10.0 miles
Clouds Clear
Dew Point 57 °F
Humidity 82%
Rainfall 0.00 in
Snow Depth Not available.
UV 2 out of 16
Pollen 11.50 out of 12
Air Quality Not available.
Flu Activity No Activity
METAR KCNK 191355Z AUTO 18018G29KT 10SM CLR 14/08 A3002 RMK AO2 PK WND 18029/1353 SLP160 T01440078 $

More Conditions Fewer Conditions

10-Day Weather Forecast

Almanac

Astronomy

Apr. 19, 2014 Rise Set
Actual Time 6:48 AM CDT 8:13 PM CDT
Civil Twilight 6:20 AM CDT 8:41 PM CDT
Nautical Twilight 5:47 AM CDT 9:15 PM CDT
Astronomical Twilight 5:11 AM CDT 9:50 PM CDT
Moon No Moon Rise 10:09 AM CDT
Length of Visible Light 14h 20m
Length of Day
13h 24m
Tomorrow will be 2m 25s longer.
Waning Gibbous, 79% of the Moon is Illuminated
Today
Waning Gibbous
Apr 22
Last Quarter
Apr 29
New
May 6
First Quarter
May 14
Full

Today's Extremes

State Highs State Lows

Community

  • A Glorious Morning
    A Glorious Morning
  • Tender Rays Of Hope
    Tender Rays Of Hope
  • Bleeding Hearts
    Bleeding Hearts
  • Sunset Silhouettes
    Sunset Silhouettes
  • FL sunset Perico Isle
    FL sunset Perico Isle

WunderPhotos

Upload Photos

1,702,755 photos uploaded!

WunderBlogs® & News

Nearby

Snow Depth

Station Depth Elevation
No new snow has been reported.

Coastal Water Temperatures

Place Temperature
No Stations Reporting

Earthquake Activity

City Distance Mag. Time & Date
No recent earthquake activity has been reported nearby.
Minimum magnitude displayed is 2.5.

Nearby Weather Stations

Station Location Temp. Dew Point Humidity Wind Precip. Elev Updated Type
Simpson KS, Beloit, KS 62.8 °F 57 °F 82% South  at  11.4 mph - / hr 1342 ft 9:38 AM CDT Normal
Center Township, BELOIT, KS 64.0 °F 52 °F 64% SSE  at  18.0 mph 0.00 in / hr 1504 ft 9:46 AM CDT Normal
Chancy's Pond, Delphos, KS 61.6 °F 50 °F 66% South  at  23.0 mph 0.00 in / hr 1375 ft 9:46 AM CDT Rapid Fire
Joe's Place, Concordia, KS 61.6 °F 49 °F 64% SW  at  22.0 mph 0.00 in / hr 1440 ft 9:46 AM CDT Rapid Fire
Minneapolis Grade School, Minneapolis, KS 63.0 °F 50 °F 62% SSE  at  6.0 mph 0.00 in / hr 1318 ft 9:46 AM CDT Rapid Fire

Show More Stations Show Fewer Stations

What do you think?

We're not finished. Please let us know what you like, what you don't like, and what you are still missing.